Terminal Aerodrome Forecast
Issued by NWS Sioux Falls, SD

Home | Current Version | Previous Version | Graphics & Text | Print | Product List | Glossary Off
Versions: 1 2 3 4 5 6 7 8 9 10 11 12 13 14 15 16 17 18 19 20 21 22 23 24 25 26 27 28 29 30 31 32 33 34 35 36 37 38 39 40 41 42

000
FTUS43 KFSD 201735 CCA
TAFSUX
TAF COR
KSUX 201735Z 2018/2118 28008KT P6SM BKN025
     FM201900 VRB04KT P6SM SCT040
     FM210000 13006KT P6SM SCT040 BKN150
     FM211400 16012KT P6SM SCT009 BKN120=

USA.gov is the U.S. government's official web portal to all federal, state and local government web resources and services.